Norwegian Epic — C6XP7 — position and weather

sailwx.info

Track history (hours):
 
Tides and Currents Weather Stations Pressure Air Temp Water Temp Dewpoint Dewpoint Depression Visibility Wind Speed Wind Dir Waves Ship Positions

Norwegian Epic

Last reported at 2017-Aug-20 03:11 UTC. Time now 2017-Aug-20 15:37 UTC.
Position N 41°22' E 002°11'.

Length 329 m; draft 9 m.

Type: Passenger vessel. MMSI: 311018500.

Date/timePositionNaut miles runAvg speedWind from/ knotsBaromVisibWave heightAir tempDewpointWater temp
2017-Aug-20 03:11N 41°22' E 002°11'0 0.0
2017-Aug-20 02:59N 41°22' E 002°11'1 1.8
2017-Aug-20 02:20N 41°21' E 002°10'3 7.9
2017-Aug-20 02:00N 41°18' E 002°11'714.4
2017-Aug-20 01:30N 41°11' E 002°11'917.2
2017-Aug-20 01:00N 41°02' E 002°11'816.7
2017-Aug-20 00:30N 40°54' E 002°12'816.5
2017-Aug-20 00:00N 40°46' E 002°12'816.5
2017-Aug-19 23:30N 40°38' E 002°12'917.3
2017-Aug-19 23:01N 40°29' E 002°12'917.2
2017-Aug-19 22:31N 40°20' E 002°12'917.1
2017-Aug-19 22:00N 40°12' E 002°12'817.0
2017-Aug-19 21:31N 40°03' E 002°12'917.0
2017-Aug-19 21:01N 39°55' E 002°12'917.3
2017-Aug-19 20:30N 39°46' E 002°12'817.1
2017-Aug-19 20:01N 39°38' E 002°13'816.2
2017-Aug-19 19:30N 39°30' E 002°18'916.9
2017-Aug-19 19:00N 39°25' E 002°26'714.4
2017-Aug-19 18:30N 39°28' E 002°35'612.2
2017-Aug-19 18:00N 39°33' E 002°38'0 0.6
2017-Aug-19 17:29N 39°33' E 002°38'0 0.0
2017-Aug-19 16:59N 39°33' E 002°38'0 0.0
2017-Aug-19 16:30N 39°33' E 002°38'0 0.0
2017-Aug-19 16:00N 39°33' E 002°38'0 0.0
2017-Aug-19 15:30N 39°33' E 002°38'0 0.0
2017-Aug-19 14:58N 39°33' E 002°38'0 0.0
2017-Aug-19 13:58N 39°33' E 002°38'0 0.1
2017-Aug-19 13:30N 39°33' E 002°38'0 0.1
2017-Aug-19 12:59N 39°33' E 002°38'0 0.2
2017-Aug-19 12:30N 39°33' E 002°38'0 0.1
2017-Aug-19 12:00N 39°33' E 002°38'0 0.0
2017-Aug-19 11:30N 39°33' E 002°38'0 0.0
2017-Aug-19 11:00N 39°33' E 002°38'0 0.2
2017-Aug-19 10:30N 39°33' E 002°38'2 3.8
2017-Aug-19 10:00N 39°31' E 002°39'714.3
2017-Aug-19 09:30N 39°25' E 002°33'714.2
2017-Aug-19 09:00N 39°26' E 002°24'815.6
2017-Aug-19 08:30N 39°31' E 002°16'714.3
2017-Aug-19 08:00N 39°38' E 002°16'817.1
2017-Aug-19 07:30N 39°45' E 002°23'917.6
2017-Aug-19 07:00N 39°51' E 002°31'1020.6
2017-Aug-19 06:30N 39°58' E 002°41'1020.3
2017-Aug-19 06:00N 40°06' E 002°50'1020.5
2017-Aug-19 05:30N 40°13' E 002°60'1020.9
2017-Aug-19 05:00N 40°20' E 003°09'1021.0
2017-Aug-19 04:30N 40°28' E 003°19'1021.0
2017-Aug-19 04:00N 40°35' E 003°28'13522.3
2017-Aug-18 21:58N 42°11' E 005°34'1021.2
2017-Aug-18 21:30N 42°18' E 005°44'1021.2
2017-Aug-18 21:00N 42°26' E 005°54'1121.3
2017-Aug-18 20:31N 42°33' E 006°04'1121.3
2017-Aug-18 20:01N 42°41' E 006°14'1121.6
2017-Aug-18 19:30N 42°48' E 006°24'1121.4
2017-Aug-18 19:00N 42°56' E 006°34'1121.2
2017-Aug-18 18:30N 43°04' E 006°44'1020.7
2017-Aug-18 18:00N 43°12' E 006°53'1121.1
2017-Aug-18 17:30N 43°22' E 006°57'816.6
2017-Aug-18 17:00N 43°30' E 007°00'2 3.0
2017-Aug-18 16:30N 43°32' E 007°00'0 0.1
2017-Aug-18 15:59N 43°32' E 007°01'0 0.3
2017-Aug-18 15:29N 43°32' E 007°00'0 0.1
2017-Aug-18 15:00N 43°32' E 007°00'0 0.0
2017-Aug-18 14:30N 43°32' E 007°00'0 0.0
2017-Aug-18 13:28N 43°32' E 007°00'0 0.0
2017-Aug-18 12:58N 43°32' E 007°00'0 0.3
2017-Aug-18 12:26N 43°32' E 007°01'0 0.2
2017-Aug-18 11:59N 43°32' E 007°00'0 0.0
2017-Aug-18 11:29N 43°32' E 007°00'0 0.0
2017-Aug-18 10:59N 43°32' E 007°00'0 0.0
2017-Aug-18 10:30N 43°32' E 007°00'0 0.2
2017-Aug-18 09:57N 43°32' E 007°01'0 0.1
2017-Aug-18 09:30N 43°32' E 007°01'0 0.0
2017-Aug-18 09:00N 43°32' E 007°01'0 0.0
2017-Aug-18 08:28N 43°32' E 007°01'0 0.0
2017-Aug-18 07:58N 43°32' E 007°01'0 0.0
2017-Aug-18 07:28N 43°32' E 007°01'1 1.6
2017-Aug-18 06:59N 43°33' E 007°01'1 1.6
2017-Aug-18 06:29N 43°32' E 007°01'0 0.0
2017-Aug-18 05:59N 43°32' E 007°01'0 0.0
2017-Aug-18 05:30N 43°32' E 007°01'0 0.0
2017-Aug-18 05:00N 43°32' E 007°01'0 0.1
2017-Aug-18 04:30N 43°32' E 007°01'2 3.9
2017-Aug-18 04:01N 43°30' E 007°01'5 9.7
2017-Aug-18 03:31N 43°28' E 007°07'611.3
2017-Aug-18 03:00N 43°28' E 007°15'611.5
2017-Aug-18 02:30N 43°28' E 007°23'611.6
2017-Aug-18 02:01N 43°28' E 007°31'612.0
2017-Aug-18 01:31N 43°29' E 007°39'612.6
2017-Aug-18 01:00N 43°29' E 007°48'612.4
2017-Aug-18 00:31N 43°29' E 007°56'612.4
2017-Aug-18 00:01N 43°30' E 008°05'612.6
2017-Aug-17 23:31N 43°30' E 008°13'612.6
2017-Aug-17 23:01N 43°30' E 008°22'612.7
2017-Aug-17 22:31N 43°31' E 008°31'612.5
2017-Aug-17 22:00N 43°32' E 008°39'612.2
2017-Aug-17 21:31N 43°32' E 008°48'714.9
2017-Aug-17 21:00N 43°30' E 008°58'816.5
2017-Aug-17 20:30N 43°31' E 009°09'816.6
2017-Aug-17 20:00N 43°31' E 009°21'816.3
2017-Aug-17 19:30N 43°31' E 009°32'816.1
2017-Aug-17 19:00N 43°31' E 009°43'816.1
2017-Aug-17 18:30N 43°31' E 009°54'816.4
2017-Aug-17 18:00N 43°30' E 010°05'815.6
2017-Aug-17 17:30N 43°32' E 010°16'2 3.8
2017-Aug-17 17:00N 43°33' E 010°18'0 0.0
2017-Aug-17 16:30N 43°33' E 010°18'0 0.0
2017-Aug-17 16:00N 43°33' E 010°18'0 0.0
2017-Aug-17 15:30N 43°33' E 010°18'0 0.0
2017-Aug-17 15:00N 43°33' E 010°18'0 0.0
2017-Aug-17 14:29N 43°33' E 010°18'0 0.0
2017-Aug-17 13:59N 43°33' E 010°18'0 0.0
2017-Aug-17 13:30N 43°33' E 010°18'0 0.0
2017-Aug-17 13:00N 43°33' E 010°18'0 0.0
2017-Aug-17 12:30N 43°33' E 010°18'0 0.0
2017-Aug-17 12:01N 43°33' E 010°18'0 0.0
2017-Aug-17 11:28N 43°33' E 010°18'0 0.0
2017-Aug-17 10:55N 43°33' E 010°18'0 0.0
2017-Aug-17 10:25N 43°33' E 010°18'0 0.0
2017-Aug-17 09:59N 43°33' E 010°18'0 0.0
2017-Aug-17 09:29N 43°33' E 010°18'0 0.0
2017-Aug-17 08:59N 43°33' E 010°18'0 0.0
2017-Aug-17 08:30N 43°33' E 010°18'0 0.0
2017-Aug-17 08:00N 43°33' E 010°18'0 0.0
2017-Aug-17 07:30N 43°33' E 010°18'0 0.0
2017-Aug-17 06:58N 43°33' E 010°18'0 0.0
2017-Aug-17 06:28N 43°33' E 010°18'0 0.0
2017-Aug-17 05:58N 43°33' E 010°18'0 0.0
2017-Aug-17 05:31N 43°33' E 010°18'0 0.0
2017-Aug-17 05:01N 43°33' E 010°18'1 1.1
2017-Aug-17 04:31N 43°33' E 010°17'2 4.4
2017-Aug-17 04:01N 43°31' E 010°15'714.3
2017-Aug-17 03:30N 43°25' E 010°12'816.2
2017-Aug-17 03:00N 43°17' E 010°10'816.4
2017-Aug-17 02:30N 43°09' E 010°08'815.9
2017-Aug-17 02:00N 43°01' E 010°05'714.6
2017-Aug-17 01:30N 42°54' E 010°02'714.9
2017-Aug-17 01:00N 42°47' E 009°57'815.4
2017-Aug-17 00:30N 42°40' E 009°54'815.6
2017-Aug-17 00:00N 42°32' E 009°54'815.7
2017-Aug-16 23:30N 42°24' E 009°55'914.7
2017-Aug-16 22:52N 42°16' E 009°60'615.9
2017-Aug-16 22:30N 42°14' E 010°07'816.1
2017-Aug-16 22:00N 42°11' E 010°17'816.2
2017-Aug-16 21:30N 42°08' E 010°27'816.2
2017-Aug-16 21:01N 42°05' E 010°37'815.9
2017-Aug-16 20:30N 42°02' E 010°47'815.7
2017-Aug-16 20:00N 41°59' E 010°57'1014.9
2017-Aug-16 19:22N 41°58' E 011°10'615.8
2017-Aug-16 19:00N 41°60' E 011°17'915.5
2017-Aug-16 18:25N 42°03' E 011°29'815.4
2017-Aug-16 17:53N 42°06' E 011°40'11 0.7
2017-Aug-16 02:13N 41°55' E 011°46'2316.8
2017-Aug-16 00:50N 41°36' E 012°03'3617.1
2017-Aug-15 22:42N 41°05' E 012°28'516.8
2017-Aug-15 22:24N 41°00' E 012°32'719.0
2017-Aug-15 22:00N 40°55' E 012°39'1419.3
2017-Aug-15 21:18N 40°47' E 012°53'619.2
2017-Aug-15 21:00N 40°45' E 013°01'919.1
2017-Aug-15 20:30N 40°43' E 013°13'919.0
2017-Aug-15 20:00N 40°40' E 013°24'1019.2
2017-Aug-15 19:30N 40°39' E 013°37'1019.0
2017-Aug-15 19:00N 40°38' E 013°49'816.7
2017-Aug-15 18:30N 40°38' E 014°01'816.3
2017-Aug-15 18:00N 40°43' E 014°09'815.9
2017-Aug-15 17:30N 40°48' E 014°17'2 3.3
2017-Aug-15 16:52N 40°50' E 014°16'0 0.0
2017-Aug-15 16:14N 40°50' E 014°16'0 0.0
2017-Aug-15 15:47N 40°50' E 014°16'0 0.0
2017-Aug-15 15:29N 40°50' E 014°16'0 0.0
2017-Aug-15 14:59N 40°50' E 014°16'0 0.0
2017-Aug-15 14:24N 40°50' E 014°16'0 0.0
2017-Aug-15 14:00N 40°50' E 014°16'0 0.0
2017-Aug-15 13:30N 40°50' E 014°16'0 0.0
2017-Aug-15 12:58N 40°50' E 014°16'0 0.0
2017-Aug-15 12:25N 40°50' E 014°16'0 0.0
2017-Aug-15 11:58N 40°50' E 014°16'0 0.0
2017-Aug-15 11:29N 40°50' E 014°16'0 0.0
2017-Aug-15 10:59N 40°50' E 014°16'0 0.0
2017-Aug-15 10:29N 40°50' E 014°16'0 0.0
2017-Aug-15 10:00N 40°50' E 014°16'0 0.0
2017-Aug-15 09:30N 40°50' E 014°16'0 0.0
2017-Aug-15 09:00N 40°50' E 014°16'0 0.0
2017-Aug-15 08:28N 40°50' E 014°16'0 0.0
2017-Aug-15 07:43N 40°50' E 014°16'0 0.0
2017-Aug-15 07:22N 40°50' E 014°16'0 0.0
2017-Aug-15 06:59N 40°50' E 014°16'0 0.0
2017-Aug-15 06:23N 40°50' E 014°16'0 0.0
2017-Aug-15 05:59N 40°50' E 014°16'0 0.0
2017-Aug-15 05:30N 40°50' E 014°16'0 0.0
2017-Aug-15 05:00N 40°50' E 014°16'1 1.1
2017-Aug-15 04:30N 40°50' E 014°16'3 6.0
2017-Aug-15 04:00N 40°47' E 014°17'5 9.1
2017-Aug-15 03:30N 40°44' E 014°12'612.2
2017-Aug-15 03:00N 40°40' E 014°06'812.5
2017-Aug-15 02:24N 40°35' E 013°59'512.6
2017-Aug-15 02:00N 40°32' E 013°54'612.5
2017-Aug-15 01:30N 40°28' E 013°47'611.7
2017-Aug-15 01:00N 40°28' E 013°40'612.6
2017-Aug-15 00:30N 40°30' E 013°32'612.7
2017-Aug-15 00:00N 40°31' E 013°24'612.7
2017-Aug-14 23:30N 40°33' E 013°15'814.5
2017-Aug-14 22:59N 40°35' E 013°06'1016.6
2017-Aug-14 22:24N 40°38' E 012°54'1516.4
2017-Aug-14 21:28N 40°42' E 012°34'1616.5
2017-Aug-14 20:29N 40°46' E 012°13'1216.4
2017-Aug-14 19:44N 40°50' E 011°58'416.3
2017-Aug-14 19:30N 40°51' E 011°53'1916.4
2017-Aug-14 18:21N 40°56' E 011°29'616.4
2017-Aug-14 18:00N 40°57' E 011°22'1516.7
2017-Aug-14 17:05N 41°01' E 011°02'116.7
2017-Aug-14 17:00N 41°02' E 011°00'5916.7
2017-Aug-14 13:28N 41°18' E 009°45'817.2
2017-Aug-14 13:00N 41°20' E 009°35'816.7
2017-Aug-14 12:30N 41°22' E 009°24'2314.9
2017-Aug-14 10:59N 41°17' E 008°55'1116.5
2017-Aug-14 10:21N 41°17' E 008°41'1017.1
2017-Aug-14 09:47N 41°17' E 008°28'1017.4
2017-Aug-14 09:12N 41°17' E 008°15'317.4
2017-Aug-14 09:00N 41°17' E 008°10'917.5
2017-Aug-14 08:30N 41°17' E 007°58'917.6
2017-Aug-14 08:00N 41°17' E 007°47'917.8
2017-Aug-14 07:30N 41°17' E 007°35'917.6
2017-Aug-14 07:00N 41°17' E 007°23'917.5
2017-Aug-14 06:30N 41°17' E 007°11'917.9
2017-Aug-14 06:00N 41°17' E 006°59'918.0
2017-Aug-14 05:30N 41°17' E 006°48'918.0
2017-Aug-14 05:00N 41°17' E 006°36'917.9
2017-Aug-14 04:30N 41°16' E 006°24'1317.6
2017-Aug-14 03:48N 41°16' E 006°07'617.6
2017-Aug-14 03:29N 41°17' E 005°59'2317.7
2017-Aug-14 02:11N 41°16' E 005°29'517.7
2017-Aug-14 01:53N 41°16' E 005°22'2817.2
2017-Aug-14 00:16N 41°16' E 004°45'2016.7
2017-Aug-13 23:06N 41°16' E 004°19'116.9
2017-Aug-13 23:00N 41°16' E 004°17'1216.8
2017-Aug-13 22:18N 41°16' E 004°01'917.0
2017-Aug-13 21:48N 41°16' E 003°50'516.9
2017-Aug-13 21:30N 41°16' E 003°43'917.1
2017-Aug-13 20:58N 41°16' E 003°31'917.4
2017-Aug-13 20:28N 41°16' E 003°19'817.2
2017-Aug-13 20:00N 41°15' E 003°09'917.1
2017-Aug-13 19:30N 41°15' E 002°57'816.8
2017-Aug-13 19:00N 41°16' E 002°46'917.1
2017-Aug-13 18:28N 41°16' E 002°34'817.4
2017-Aug-13 18:00N 41°16' E 002°23'917.0
2017-Aug-13 17:30N 41°16' E 002°12'611.4
2017-Aug-13 17:00N 41°21' E 002°10'1 0.1
2017-Aug-13 08:47N 41°22' E 002°11'0 0.2
2017-Aug-13 08:25N 41°22' E 002°11'1 0.2
2017-Aug-13 02:17N 41°21' E 002°10'2 9.1
2017-Aug-13 02:01N 41°18' E 002°11'612.6
2017-Aug-13 01:30N 41°12' E 002°11'10715.6
2017-Aug-12 18:38N 39°27' E 002°35'216.5
2017-Aug-12 18:30N 39°28' E 002°36'5 9.9
2017-Aug-12 18:00N 39°33' E 002°38'0 0.2
2017-Aug-12 17:28N 39°33' E 002°38'0 0.0
2017-Aug-12 16:58N 39°33' E 002°38'0 0.0
2017-Aug-12 16:28N 39°33' E 002°38'0 0.0
2017-Aug-12 15:59N 39°33' E 002°38'0 0.0
2017-Aug-12 15:29N 39°33' E 002°38'0 0.0
2017-Aug-12 14:59N 39°33' E 002°38'0 0.0
2017-Aug-12 14:30N 39°33' E 002°38'0 0.0
2017-Aug-12 14:00N 39°33' E 002°38'0 0.0
2017-Aug-12 13:27N 39°33' E 002°38'0 0.0
2017-Aug-12 12:58N 39°33' E 002°38'0 0.0
2017-Aug-12 12:28N 39°33' E 002°38'0 0.0
2017-Aug-12 11:58N 39°33' E 002°38'0 0.0
2017-Aug-12 11:29N 39°33' E 002°38'0 0.0
2017-Aug-12 10:59N 39°33' E 002°38'0 0.2
2017-Aug-12 10:31N 39°33' E 002°38'2 3.2
2017-Aug-12 10:00N 39°32' E 002°38'715.0
2017-Aug-12 09:30N 39°25' E 002°33'714.7
2017-Aug-12 09:01N 39°27' E 002°24'816.8
2017-Aug-12 08:30N 39°33' E 002°16'917.8
2017-Aug-12 08:00N 39°41' E 002°19'1019.7
2017-Aug-12 07:30N 39°48' E 002°28'1020.0
2017-Aug-12 07:00N 39°55' E 002°37'1019.9
2017-Aug-12 06:30N 40°02' E 002°46'1019.5
2017-Aug-12 06:00N 40°09' E 002°55'1019.8
2017-Aug-12 05:30N 40°16' E 003°04'1020.1
2017-Aug-12 05:00N 40°23' E 003°13'1020.0
2017-Aug-12 04:30N 40°31' E 003°22'1121.9
2017-Aug-12 04:00N 40°39' E 003°32'22521.0
2017-Aug-11 17:18N 43°24' E 006°58'619.5
2017-Aug-11 17:01N 43°30' E 006°60'2 3.6
2017-Aug-11 16:31N 43°32' E 007°00'0 0.5
2017-Aug-11 16:00N 43°32' E 007°00'0 0.3
2017-Aug-11 15:31N 43°32' E 007°01'0 0.2
2017-Aug-11 15:01N 43°32' E 007°01'0 0.0
2017-Aug-11 14:31N 43°32' E 007°01'0 0.0
2017-Aug-11 13:31N 43°32' E 007°01'0 0.0
2017-Aug-11 13:01N 43°32' E 007°01'0 0.0
2017-Aug-11 12:30N 43°32' E 007°01'0 0.0
2017-Aug-11 12:01N 43°32' E 007°01'0 0.0
2017-Aug-11 11:31N 43°32' E 007°01'0 0.0
2017-Aug-11 11:00N 43°32' E 007°01'0 0.0
2017-Aug-11 10:31N 43°32' E 007°01'0 0.0
2017-Aug-11 10:00N 43°32' E 007°01'0 0.0
2017-Aug-11 09:30N 43°32' E 007°01'0 0.0
2017-Aug-11 09:00N 43°32' E 007°01'0 0.0
2017-Aug-11 08:30N 43°32' E 007°01'0 0.1
2017-Aug-11 08:01N 43°32' E 007°01'0 0.0
2017-Aug-11 07:30N 43°32' E 007°01'0 0.0
2017-Aug-11 07:00N 43°32' E 007°01'0 0.0
2017-Aug-11 06:31N 43°32' E 007°01'0 0.0
2017-Aug-11 06:00N 43°32' E 007°01'0 0.0
2017-Aug-11 05:30N 43°32' E 007°01'0 0.2
2017-Aug-11 05:00N 43°32' E 007°01'2 3.4
2017-Aug-11 04:31N 43°30' E 007°00'5 9.9
2017-Aug-11 04:01N 43°28' E 007°06'612.7
2017-Aug-11 03:31N 43°28' E 007°15'612.6
2017-Aug-11 03:00N 43°28' E 007°24'712.5
2017-Aug-11 02:28N 43°29' E 007°33'2912.6
2017-Aug-11 00:10N 43°29' E 008°13'212.6
2017-Aug-11 00:00N 43°29' E 008°16'713.4
2017-Aug-10 23:31N 43°30' E 008°25'713.5
2017-Aug-10 23:01N 43°30' E 008°34'612.7
2017-Aug-10 22:30N 43°30' E 008°43'713.2
2017-Aug-10 21:59N 43°30' E 008°52'713.7
2017-Aug-10 21:30N 43°31' E 009°02'713.5
2017-Aug-10 21:00N 43°31' E 009°11'713.1
2017-Aug-10 20:30N 43°31' E 009°20'713.2
2017-Aug-10 20:00N 43°31' E 009°29'713.5
2017-Aug-10 19:30N 43°31' E 009°38'714.8
2017-Aug-10 19:00N 43°31' E 009°48'715.0
2017-Aug-10 18:30N 43°31' E 009°59'815.2
2017-Aug-10 18:00N 43°31' E 010°09'612.0
2017-Aug-10 17:30N 43°32' E 010°17'1 1.7
2017-Aug-10 17:00N 43°33' E 010°18'0 0.0
2017-Aug-10 16:31N 43°33' E 010°18'0 0.0
2017-Aug-10 15:55N 43°33' E 010°18'0 0.0
2017-Aug-10 15:28N 43°33' E 010°18'0 0.0
2017-Aug-10 14:59N 43°33' E 010°18'0 0.0
2017-Aug-10 14:29N 43°33' E 010°18'0 0.0
2017-Aug-10 13:56N 43°33' E 010°18'0 0.0
2017-Aug-10 13:30N 43°33' E 010°18'0 0.0
2017-Aug-10 13:00N 43°33' E 010°18'0 0.0
2017-Aug-10 12:30N 43°33' E 010°18'0 0.0
2017-Aug-10 12:01N 43°33' E 010°18'0 0.0
2017-Aug-10 11:28N 43°33' E 010°18'0 0.0
2017-Aug-10 10:58N 43°33' E 010°18'0 0.0
2017-Aug-10 10:29N 43°33' E 010°18'0 0.0
2017-Aug-10 09:59N 43°33' E 010°18'0 0.0
2017-Aug-10 09:29N 43°33' E 010°18'0 0.0
2017-Aug-10 09:00N 43°33' E 010°18'0 0.0
2017-Aug-10 08:30N 43°33' E 010°18'0 0.0
2017-Aug-10 07:57N 43°33' E 010°18'0 0.0
2017-Aug-10 07:31N 43°33' E 010°18'0 0.0
2017-Aug-10 06:58N 43°33' E 010°18'0 0.0
2017-Aug-10 06:28N 43°33' E 010°18'0 0.0
2017-Aug-10 05:59N 43°33' E 010°18'0 0.0
2017-Aug-10 05:29N 43°33' E 010°18'0 0.0
2017-Aug-10 04:59N 43°33' E 010°18'0 0.2
2017-Aug-10 04:30N 43°33' E 010°18'3 6.2
2017-Aug-10 04:00N 43°31' E 010°15'510.1
2017-Aug-10 03:30N 43°26' E 010°12'  
Track history (hours):
 
Tides and Currents Weather Stations Pressure Air Temp Water Temp Dewpoint Dewpoint Depression Visibility Wind Speed Wind Dir Waves Ship Positions

Norwegian Epic

Last reported at 2017-Aug-20 03:11 UTC. Time now 2017-Aug-20 15:37 UTC.
Position N 41°22' E 002°11'.

Length 329 m; draft 9 m.

Type: Passenger vessel. MMSI: 311018500.

Date/timePositionNaut miles runAvg speedWind from/ knotsBaromVisibWave heightAir tempDewpointWater temp
2017-Aug-20 03:11N 41°22' E 002°11'0 0.0
2017-Aug-20 02:59N 41°22' E 002°11'1 1.8
2017-Aug-20 02:20N 41°21' E 002°10'3 7.9
2017-Aug-20 02:00N 41°18' E 002°11'714.4
2017-Aug-20 01:30N 41°11' E 002°11'917.2
2017-Aug-20 01:00N 41°02' E 002°11'816.7
2017-Aug-20 00:30N 40°54' E 002°12'816.5
2017-Aug-20 00:00N 40°46' E 002°12'816.5
2017-Aug-19 23:30N 40°38' E 002°12'917.3
2017-Aug-19 23:01N 40°29' E 002°12'917.2
2017-Aug-19 22:31N 40°20' E 002°12'917.1
2017-Aug-19 22:00N 40°12' E 002°12'817.0
2017-Aug-19 21:31N 40°03' E 002°12'917.0
2017-Aug-19 21:01N 39°55' E 002°12'917.3
2017-Aug-19 20:30N 39°46' E 002°12'817.1
2017-Aug-19 20:01N 39°38' E 002°13'816.2
2017-Aug-19 19:30N 39°30' E 002°18'916.9
2017-Aug-19 19:00N 39°25' E 002°26'714.4
2017-Aug-19 18:30N 39°28' E 002°35'612.2
2017-Aug-19 18:00N 39°33' E 002°38'0 0.6
2017-Aug-19 17:29N 39°33' E 002°38'0 0.0
2017-Aug-19 16:59N 39°33' E 002°38'0 0.0
2017-Aug-19 16:30N 39°33' E 002°38'0 0.0
2017-Aug-19 16:00N 39°33' E 002°38'0 0.0
2017-Aug-19 15:30N 39°33' E 002°38'0 0.0
2017-Aug-19 14:58N 39°33' E 002°38'0 0.0
2017-Aug-19 13:58N 39°33' E 002°38'0 0.1
2017-Aug-19 13:30N 39°33' E 002°38'0 0.1
2017-Aug-19 12:59N 39°33' E 002°38'0 0.2
2017-Aug-19 12:30N 39°33' E 002°38'0 0.1
2017-Aug-19 12:00N 39°33' E 002°38'0 0.0
2017-Aug-19 11:30N 39°33' E 002°38'0 0.0
2017-Aug-19 11:00N 39°33' E 002°38'0 0.2
2017-Aug-19 10:30N 39°33' E 002°38'2 3.8
2017-Aug-19 10:00N 39°31' E 002°39'714.3
2017-Aug-19 09:30N 39°25' E 002°33'714.2
2017-Aug-19 09:00N 39°26' E 002°24'815.6
2017-Aug-19 08:30N 39°31' E 002°16'714.3
2017-Aug-19 08:00N 39°38' E 002°16'817.1
2017-Aug-19 07:30N 39°45' E 002°23'917.6
2017-Aug-19 07:00N 39°51' E 002°31'1020.6
2017-Aug-19 06:30N 39°58' E 002°41'1020.3
2017-Aug-19 06:00N 40°06' E 002°50'1020.5
2017-Aug-19 05:30N 40°13' E 002°60'1020.9
2017-Aug-19 05:00N 40°20' E 003°09'1021.0
2017-Aug-19 04:30N 40°28' E 003°19'1021.0
2017-Aug-19 04:00N 40°35' E 003°28'13522.3
2017-Aug-18 21:58N 42°11' E 005°34'1021.2
2017-Aug-18 21:30N 42°18' E 005°44'1021.2
2017-Aug-18 21:00N 42°26' E 005°54'1121.3
2017-Aug-18 20:31N 42°33' E 006°04'1121.3
2017-Aug-18 20:01N 42°41' E 006°14'1121.6
2017-Aug-18 19:30N 42°48' E 006°24'1121.4
2017-Aug-18 19:00N 42°56' E 006°34'1121.2
2017-Aug-18 18:30N 43°04' E 006°44'1020.7
2017-Aug-18 18:00N 43°12' E 006°53'1121.1
2017-Aug-18 17:30N 43°22' E 006°57'816.6
2017-Aug-18 17:00N 43°30' E 007°00'2 3.0
2017-Aug-18 16:30N 43°32' E 007°00'0 0.1
2017-Aug-18 15:59N 43°32' E 007°01'0 0.3
2017-Aug-18 15:29N 43°32' E 007°00'0 0.1
2017-Aug-18 15:00N 43°32' E 007°00'0 0.0
2017-Aug-18 14:30N 43°32' E 007°00'0 0.0
2017-Aug-18 13:28N 43°32' E 007°00'0 0.0
2017-Aug-18 12:58N 43°32' E 007°00'0 0.3
2017-Aug-18 12:26N 43°32' E 007°01'0 0.2
2017-Aug-18 11:59N 43°32' E 007°00'0 0.0
2017-Aug-18 11:29N 43°32' E 007°00'0 0.0
2017-Aug-18 10:59N 43°32' E 007°00'0 0.0
2017-Aug-18 10:30N 43°32' E 007°00'0 0.2
2017-Aug-18 09:57N 43°32' E 007°01'0 0.1
2017-Aug-18 09:30N 43°32' E 007°01'0 0.0
2017-Aug-18 09:00N 43°32' E 007°01'0 0.0
2017-Aug-18 08:28N 43°32' E 007°01'0 0.0
2017-Aug-18 07:58N 43°32' E 007°01'0 0.0
2017-Aug-18 07:28N 43°32' E 007°01'1 1.6
2017-Aug-18 06:59N 43°33' E 007°01'1 1.6
2017-Aug-18 06:29N 43°32' E 007°01'0 0.0
2017-Aug-18 05:59N 43°32' E 007°01'0 0.0
2017-Aug-18 05:30N 43°32' E 007°01'0 0.0
2017-Aug-18 05:00N 43°32' E 007°01'0 0.1
2017-Aug-18 04:30N 43°32' E 007°01'2 3.9
2017-Aug-18 04:01N 43°30' E 007°01'5 9.7
2017-Aug-18 03:31N 43°28' E 007°07'611.3
2017-Aug-18 03:00N 43°28' E 007°15'611.5
2017-Aug-18 02:30N 43°28' E 007°23'611.6
2017-Aug-18 02:01N 43°28' E 007°31'612.0
2017-Aug-18 01:31N 43°29' E 007°39'612.6
2017-Aug-18 01:00N 43°29' E 007°48'612.4
2017-Aug-18 00:31N 43°29' E 007°56'612.4
2017-Aug-18 00:01N 43°30' E 008°05'612.6
2017-Aug-17 23:31N 43°30' E 008°13'612.6
2017-Aug-17 23:01N 43°30' E 008°22'612.7
2017-Aug-17 22:31N 43°31' E 008°31'612.5
2017-Aug-17 22:00N 43°32' E 008°39'612.2
2017-Aug-17 21:31N 43°32' E 008°48'714.9
2017-Aug-17 21:00N 43°30' E 008°58'816.5
2017-Aug-17 20:30N 43°31' E 009°09'816.6
2017-Aug-17 20:00N 43°31' E 009°21'816.3
2017-Aug-17 19:30N 43°31' E 009°32'816.1
2017-Aug-17 19:00N 43°31' E 009°43'816.1
2017-Aug-17 18:30N 43°31' E 009°54'816.4
2017-Aug-17 18:00N 43°30' E 010°05'815.6
2017-Aug-17 17:30N 43°32' E 010°16'2 3.8
2017-Aug-17 17:00N 43°33' E 010°18'0 0.0
2017-Aug-17 16:30N 43°33' E 010°18'0 0.0
2017-Aug-17 16:00N 43°33' E 010°18'0 0.0
2017-Aug-17 15:30N 43°33' E 010°18'0 0.0
2017-Aug-17 15:00N 43°33' E 010°18'0 0.0
2017-Aug-17 14:29N 43°33' E 010°18'0 0.0
2017-Aug-17 13:59N 43°33' E 010°18'0 0.0
2017-Aug-17 13:30N 43°33' E 010°18'0 0.0
2017-Aug-17 13:00N 43°33' E 010°18'0 0.0
2017-Aug-17 12:30N 43°33' E 010°18'0 0.0
2017-Aug-17 12:01N 43°33' E 010°18'0 0.0
2017-Aug-17 11:28N 43°33' E 010°18'0 0.0
2017-Aug-17 10:55N 43°33' E 010°18'0 0.0
2017-Aug-17 10:25N 43°33' E 010°18'0 0.0
2017-Aug-17 09:59N 43°33' E 010°18'0 0.0
2017-Aug-17 09:29N 43°33' E 010°18'0 0.0
2017-Aug-17 08:59N 43°33' E 010°18'0 0.0
2017-Aug-17 08:30N 43°33' E 010°18'0 0.0
2017-Aug-17 08:00N 43°33' E 010°18'0 0.0
2017-Aug-17 07:30N 43°33' E 010°18'0 0.0
2017-Aug-17 06:58N 43°33' E 010°18'0 0.0
2017-Aug-17 06:28N 43°33' E 010°18'0 0.0
2017-Aug-17 05:58N 43°33' E 010°18'0 0.0
2017-Aug-17 05:31N 43°33' E 010°18'0 0.0
2017-Aug-17 05:01N 43°33' E 010°18'1 1.1
2017-Aug-17 04:31N 43°33' E 010°17'2 4.4
2017-Aug-17 04:01N 43°31' E 010°15'714.3
2017-Aug-17 03:30N 43°25' E 010°12'816.2
2017-Aug-17 03:00N 43°17' E 010°10'816.4
2017-Aug-17 02:30N 43°09' E 010°08'815.9
2017-Aug-17 02:00N 43°01' E 010°05'714.6
2017-Aug-17 01:30N 42°54' E 010°02'714.9
2017-Aug-17 01:00N 42°47' E 009°57'815.4
2017-Aug-17 00:30N 42°40' E 009°54'815.6
2017-Aug-17 00:00N 42°32' E 009°54'815.7
2017-Aug-16 23:30N 42°24' E 009°55'914.7
2017-Aug-16 22:52N 42°16' E 009°60'615.9
2017-Aug-16 22:30N 42°14' E 010°07'816.1
2017-Aug-16 22:00N 42°11' E 010°17'816.2
2017-Aug-16 21:30N 42°08' E 010°27'816.2
2017-Aug-16 21:01N 42°05' E 010°37'815.9
2017-Aug-16 20:30N 42°02' E 010°47'815.7
2017-Aug-16 20:00N 41°59' E 010°57'1014.9
2017-Aug-16 19:22N 41°58' E 011°10'615.8
2017-Aug-16 19:00N 41°60' E 011°17'915.5
2017-Aug-16 18:25N 42°03' E 011°29'815.4
2017-Aug-16 17:53N 42°06' E 011°40'11 0.7
2017-Aug-16 02:13N 41°55' E 011°46'2316.8
2017-Aug-16 00:50N 41°36' E 012°03'3617.1
2017-Aug-15 22:42N 41°05' E 012°28'516.8
2017-Aug-15 22:24N 41°00' E 012°32'719.0
2017-Aug-15 22:00N 40°55' E 012°39'1419.3
2017-Aug-15 21:18N 40°47' E 012°53'619.2
2017-Aug-15 21:00N 40°45' E 013°01'919.1
2017-Aug-15 20:30N 40°43' E 013°13'919.0
2017-Aug-15 20:00N 40°40' E 013°24'1019.2
2017-Aug-15 19:30N 40°39' E 013°37'1019.0
2017-Aug-15 19:00N 40°38' E 013°49'816.7
2017-Aug-15 18:30N 40°38' E 014°01'816.3
2017-Aug-15 18:00N 40°43' E 014°09'815.9
2017-Aug-15 17:30N 40°48' E 014°17'2 3.3
2017-Aug-15 16:52N 40°50' E 014°16'0 0.0
2017-Aug-15 16:14N 40°50' E 014°16'0 0.0
2017-Aug-15 15:47N 40°50' E 014°16'0 0.0
2017-Aug-15 15:29N 40°50' E 014°16'0 0.0
2017-Aug-15 14:59N 40°50' E 014°16'0 0.0
2017-Aug-15 14:24N 40°50' E 014°16'0 0.0
2017-Aug-15 14:00N 40°50' E 014°16'0 0.0
2017-Aug-15 13:30N 40°50' E 014°16'0 0.0
2017-Aug-15 12:58N 40°50' E 014°16'0 0.0
2017-Aug-15 12:25N 40°50' E 014°16'0 0.0
2017-Aug-15 11:58N 40°50' E 014°16'0 0.0
2017-Aug-15 11:29N 40°50' E 014°16'0 0.0
2017-Aug-15 10:59N 40°50' E 014°16'0 0.0
2017-Aug-15 10:29N 40°50' E 014°16'0 0.0
2017-Aug-15 10:00N 40°50' E 014°16'0 0.0
2017-Aug-15 09:30N 40°50' E 014°16'0 0.0
2017-Aug-15 09:00N 40°50' E 014°16'0 0.0
2017-Aug-15 08:28N 40°50' E 014°16'0 0.0
2017-Aug-15 07:43N 40°50' E 014°16'0 0.0
2017-Aug-15 07:22N 40°50' E 014°16'0 0.0
2017-Aug-15 06:59N 40°50' E 014°16'0 0.0
2017-Aug-15 06:23N 40°50' E 014°16'0 0.0
2017-Aug-15 05:59N 40°50' E 014°16'0 0.0
2017-Aug-15 05:30N 40°50' E 014°16'0 0.0
2017-Aug-15 05:00N 40°50' E 014°16'1 1.1
2017-Aug-15 04:30N 40°50' E 014°16'3 6.0
2017-Aug-15 04:00N 40°47' E 014°17'5 9.1
2017-Aug-15 03:30N 40°44' E 014°12'612.2
2017-Aug-15 03:00N 40°40' E 014°06'812.5
2017-Aug-15 02:24N 40°35' E 013°59'512.6
2017-Aug-15 02:00N 40°32' E 013°54'612.5
2017-Aug-15 01:30N 40°28' E 013°47'611.7
2017-Aug-15 01:00N 40°28' E 013°40'612.6
2017-Aug-15 00:30N 40°30' E 013°32'612.7
2017-Aug-15 00:00N 40°31' E 013°24'612.7
2017-Aug-14 23:30N 40°33' E 013°15'814.5
2017-Aug-14 22:59N 40°35' E 013°06'1016.6
2017-Aug-14 22:24N 40°38' E 012°54'1516.4
2017-Aug-14 21:28N 40°42' E 012°34'1616.5
2017-Aug-14 20:29N 40°46' E 012°13'1216.4
2017-Aug-14 19:44N 40°50' E 011°58'416.3
2017-Aug-14 19:30N 40°51' E 011°53'1916.4
2017-Aug-14 18:21N 40°56' E 011°29'616.4
2017-Aug-14 18:00N 40°57' E 011°22'1516.7
2017-Aug-14 17:05N 41°01' E 011°02'116.7
2017-Aug-14 17:00N 41°02' E 011°00'5916.7
2017-Aug-14 13:28N 41°18' E 009°45'817.2
2017-Aug-14 13:00N 41°20' E 009°35'816.7
2017-Aug-14 12:30N 41°22' E 009°24'2314.9
2017-Aug-14 10:59N 41°17' E 008°55'1116.5
2017-Aug-14 10:21N 41°17' E 008°41'1017.1
2017-Aug-14 09:47N 41°17' E 008°28'1017.4
2017-Aug-14 09:12N 41°17' E 008°15'317.4
2017-Aug-14 09:00N 41°17' E 008°10'917.5
2017-Aug-14 08:30N 41°17' E 007°58'917.6
2017-Aug-14 08:00N 41°17' E 007°47'917.8
2017-Aug-14 07:30N 41°17' E 007°35'917.6
2017-Aug-14 07:00N 41°17' E 007°23'917.5
2017-Aug-14 06:30N 41°17' E 007°11'917.9
2017-Aug-14 06:00N 41°17' E 006°59'918.0
2017-Aug-14 05:30N 41°17' E 006°48'918.0
2017-Aug-14 05:00N 41°17' E 006°36'917.9
2017-Aug-14 04:30N 41°16' E 006°24'1317.6
2017-Aug-14 03:48N 41°16' E 006°07'617.6
2017-Aug-14 03:29N 41°17' E 005°59'2317.7
2017-Aug-14 02:11N 41°16' E 005°29'517.7
2017-Aug-14 01:53N 41°16' E 005°22'2817.2
2017-Aug-14 00:16N 41°16' E 004°45'2016.7
2017-Aug-13 23:06N 41°16' E 004°19'116.9
2017-Aug-13 23:00N 41°16' E 004°17'1216.8
2017-Aug-13 22:18N 41°16' E 004°01'917.0
2017-Aug-13 21:48N 41°16' E 003°50'516.9
2017-Aug-13 21:30N 41°16' E 003°43'917.1
2017-Aug-13 20:58N 41°16' E 003°31'917.4
2017-Aug-13 20:28N 41°16' E 003°19'817.2
2017-Aug-13 20:00N 41°15' E 003°09'917.1
2017-Aug-13 19:30N 41°15' E 002°57'816.8
2017-Aug-13 19:00N 41°16' E 002°46'917.1
2017-Aug-13 18:28N 41°16' E 002°34'817.4
2017-Aug-13 18:00N 41°16' E 002°23'917.0
2017-Aug-13 17:30N 41°16' E 002°12'611.4
2017-Aug-13 17:00N 41°21' E 002°10'1 0.1
2017-Aug-13 08:47N 41°22' E 002°11'0 0.2
2017-Aug-13 08:25N 41°22' E 002°11'1 0.2
2017-Aug-13 02:17N 41°21' E 002°10'2 9.1
2017-Aug-13 02:01N 41°18' E 002°11'612.6
2017-Aug-13 01:30N 41°12' E 002°11'10715.6
2017-Aug-12 18:38N 39°27' E 002°35'216.5
2017-Aug-12 18:30N 39°28' E 002°36'5 9.9
2017-Aug-12 18:00N 39°33' E 002°38'0 0.2
2017-Aug-12 17:28N 39°33' E 002°38'0 0.0
2017-Aug-12 16:58N 39°33' E 002°38'0 0.0
2017-Aug-12 16:28N 39°33' E 002°38'0 0.0
2017-Aug-12 15:59N 39°33' E 002°38'0 0.0
2017-Aug-12 15:29N 39°33' E 002°38'0 0.0
2017-Aug-12 14:59N 39°33' E 002°38'0 0.0
2017-Aug-12 14:30N 39°33' E 002°38'0 0.0
2017-Aug-12 14:00N 39°33' E 002°38'0 0.0
2017-Aug-12 13:27N 39°33' E 002°38'0 0.0
2017-Aug-12 12:58N 39°33' E 002°38'0 0.0
2017-Aug-12 12:28N 39°33' E 002°38'0 0.0
2017-Aug-12 11:58N 39°33' E 002°38'0 0.0
2017-Aug-12 11:29N 39°33' E 002°38'0 0.0
2017-Aug-12 10:59N 39°33' E 002°38'0 0.2
2017-Aug-12 10:31N 39°33' E 002°38'2 3.2
2017-Aug-12 10:00N 39°32' E 002°38'715.0
2017-Aug-12 09:30N 39°25' E 002°33'714.7
2017-Aug-12 09:01N 39°27' E 002°24'816.8
2017-Aug-12 08:30N 39°33' E 002°16'917.8
2017-Aug-12 08:00N 39°41' E 002°19'1019.7
2017-Aug-12 07:30N 39°48' E 002°28'1020.0
2017-Aug-12 07:00N 39°55' E 002°37'1019.9
2017-Aug-12 06:30N 40°02' E 002°46'1019.5
2017-Aug-12 06:00N 40°09' E 002°55'1019.8
2017-Aug-12 05:30N 40°16' E 003°04'1020.1
2017-Aug-12 05:00N 40°23' E 003°13'1020.0
2017-Aug-12 04:30N 40°31' E 003°22'1121.9
2017-Aug-12 04:00N 40°39' E 003°32'22521.0
2017-Aug-11 17:18N 43°24' E 006°58'619.5
2017-Aug-11 17:01N 43°30' E 006°60'2 3.6
2017-Aug-11 16:31N 43°32' E 007°00'0 0.5
2017-Aug-11 16:00N 43°32' E 007°00'0 0.3
2017-Aug-11 15:31N 43°32' E 007°01'0 0.2
2017-Aug-11 15:01N 43°32' E 007°01'0 0.0
2017-Aug-11 14:31N 43°32' E 007°01'0 0.0
2017-Aug-11 13:31N 43°32' E 007°01'0 0.0
2017-Aug-11 13:01N 43°32' E 007°01'0 0.0
2017-Aug-11 12:30N 43°32' E 007°01'0 0.0
2017-Aug-11 12:01N 43°32' E 007°01'0 0.0
2017-Aug-11 11:31N 43°32' E 007°01'0 0.0
2017-Aug-11 11:00N 43°32' E 007°01'0 0.0
2017-Aug-11 10:31N 43°32' E 007°01'0 0.0
2017-Aug-11 10:00N 43°32' E 007°01'0 0.0
2017-Aug-11 09:30N 43°32' E 007°01'0 0.0
2017-Aug-11 09:00N 43°32' E 007°01'0 0.0
2017-Aug-11 08:30N 43°32' E 007°01'0 0.1
2017-Aug-11 08:01N 43°32' E 007°01'0 0.0
2017-Aug-11 07:30N 43°32' E 007°01'0 0.0
2017-Aug-11 07:00N 43°32' E 007°01'0 0.0
2017-Aug-11 06:31N 43°32' E 007°01'0 0.0
2017-Aug-11 06:00N 43°32' E 007°01'0 0.0
2017-Aug-11 05:30N 43°32' E 007°01'0 0.2
2017-Aug-11 05:00N 43°32' E 007°01'2 3.4
2017-Aug-11 04:31N 43°30' E 007°00'5 9.9
2017-Aug-11 04:01N 43°28' E 007°06'612.7
2017-Aug-11 03:31N 43°28' E 007°15'612.6
2017-Aug-11 03:00N 43°28' E 007°24'712.5
2017-Aug-11 02:28N 43°29' E 007°33'2912.6
2017-Aug-11 00:10N 43°29' E 008°13'212.6
2017-Aug-11 00:00N 43°29' E 008°16'713.4
2017-Aug-10 23:31N 43°30' E 008°25'713.5
2017-Aug-10 23:01N 43°30' E 008°34'612.7
2017-Aug-10 22:30N 43°30' E 008°43'713.2
2017-Aug-10 21:59N 43°30' E 008°52'713.7
2017-Aug-10 21:30N 43°31' E 009°02'713.5
2017-Aug-10 21:00N 43°31' E 009°11'713.1
2017-Aug-10 20:30N 43°31' E 009°20'713.2
2017-Aug-10 20:00N 43°31' E 009°29'713.5
2017-Aug-10 19:30N 43°31' E 009°38'714.8
2017-Aug-10 19:00N 43°31' E 009°48'715.0
2017-Aug-10 18:30N 43°31' E 009°59'815.2
2017-Aug-10 18:00N 43°31' E 010°09'612.0
2017-Aug-10 17:30N 43°32' E 010°17'1 1.7
2017-Aug-10 17:00N 43°33' E 010°18'0 0.0
2017-Aug-10 16:31N 43°33' E 010°18'0 0.0
2017-Aug-10 15:55N 43°33' E 010°18'0 0.0
2017-Aug-10 15:28N 43°33' E 010°18'0 0.0
2017-Aug-10 14:59N 43°33' E 010°18'0 0.0
2017-Aug-10 14:29N 43°33' E 010°18'0 0.0
2017-Aug-10 13:56N 43°33' E 010°18'0 0.0
2017-Aug-10 13:30N 43°33' E 010°18'0 0.0
2017-Aug-10 13:00N 43°33' E 010°18'0 0.0
2017-Aug-10 12:30N 43°33' E 010°18'0 0.0
2017-Aug-10 12:01N 43°33' E 010°18'0 0.0
2017-Aug-10 11:28N 43°33' E 010°18'0 0.0
2017-Aug-10 10:58N 43°33' E 010°18'0 0.0
2017-Aug-10 10:29N 43°33' E 010°18'0 0.0
2017-Aug-10 09:59N 43°33' E 010°18'0 0.0
2017-Aug-10 09:29N 43°33' E 010°18'0 0.0
2017-Aug-10 09:00N 43°33' E 010°18'0 0.0
2017-Aug-10 08:30N 43°33' E 010°18'0 0.0
2017-Aug-10 07:57N 43°33' E 010°18'0 0.0
2017-Aug-10 07:31N 43°33' E 010°18'0 0.0
2017-Aug-10 06:58N 43°33' E 010°18'0 0.0
2017-Aug-10 06:28N 43°33' E 010°18'0 0.0
2017-Aug-10 05:59N 43°33' E 010°18'0 0.0
2017-Aug-10 05:29N 43°33' E 010°18'0 0.0
2017-Aug-10 04:59N 43°33' E 010°18'0 0.2
2017-Aug-10 04:30N 43°33' E 010°18'3 6.2
2017-Aug-10 04:00N 43°31' E 010°15'510.1
2017-Aug-10 03:30N 43°26' E 010°12'  

Dump ship's entire track history